createdAt,value
2023-01-25T00:00:29.295Z,2.20
2023-01-25T00:05:22.638Z,2.20
2023-01-25T00:10:17.843Z,2.20
2023-01-25T00:15:12.403Z,2.20
2023-01-25T00:20:06.787Z,2.20
2023-01-25T00:25:00.199Z,2.20
2023-01-25T00:29:55.094Z,2.10
2023-01-25T00:34:50.030Z,2.20
2023-01-25T00:39:43.576Z,2.10
2023-01-25T00:44:37.146Z,2.20
2023-01-25T00:49:33.540Z,2.20
2023-01-25T00:54:27.971Z,2.20
2023-01-25T00:59:21.611Z,2.20
2023-01-25T01:04:15.108Z,2.20
2023-01-25T01:09:16.333Z,2.20
2023-01-25T01:14:09.732Z,2.20
2023-01-25T01:19:03.466Z,2.10
2023-01-25T01:23:58.010Z,2.20
2023-01-25T01:28:52.879Z,2.20
2023-01-25T01:33:49.565Z,2.30
2023-01-25T01:38:43.808Z,2.30
2023-01-25T01:43:38.394Z,2.20
2023-01-25T01:48:42.529Z,2.20
2023-01-25T01:53:36.169Z,2.20
2023-01-25T01:58:31.478Z,2.20
2023-01-25T02:03:25.864Z,2.30
2023-01-25T02:08:22.013Z,2.20
2023-01-25T02:13:15.574Z,2.20
2023-01-25T02:18:10.666Z,2.20
2023-01-25T02:23:17.409Z,2.20
2023-01-25T02:28:21.720Z,2.20
2023-01-25T02:33:15.195Z,2.30
2023-01-25T02:38:10.910Z,2.20
2023-01-25T02:43:04.315Z,2.20
2023-01-25T02:47:59.107Z,2.10
2023-01-25T02:52:52.723Z,2.10
2023-01-25T02:57:46.095Z,2.00
2023-01-25T03:02:39.613Z,2.00
2023-01-25T03:07:34.399Z,2.00
2023-01-25T03:12:27.927Z,2.00
2023-01-25T03:17:21.299Z,2.00
2023-01-25T03:22:14.859Z,2.00
2023-01-25T03:27:14.172Z,2.10
2023-01-25T03:32:07.900Z,2.00
2023-01-25T03:37:01.564Z,2.00
2023-01-25T03:41:54.852Z,1.90
2023-01-25T03:46:49.594Z,1.90
2023-01-25T03:51:42.889Z,2.00
2023-01-25T03:56:36.373Z,2.00
2023-01-25T04:01:29.669Z,2.00
2023-01-25T04:06:24.458Z,2.00
2023-01-25T04:11:17.856Z,1.90
2023-01-25T04:16:12.697Z,2.00
2023-01-25T04:21:06.574Z,2.00
2023-01-25T04:26:05.219Z,2.10
2023-01-25T04:30:59.573Z,2.10
2023-01-25T04:35:53.593Z,2.00
2023-01-25T04:40:47.041Z,2.10
2023-01-25T04:45:42.060Z,2.10
2023-01-25T04:50:35.462Z,2.00
2023-01-25T04:55:28.816Z,2.00
2023-01-25T05:00:23.070Z,1.90
2023-01-25T05:05:18.146Z,1.90
2023-01-25T05:10:13.108Z,2.00
2023-01-25T05:15:08.880Z,1.90
2023-01-25T05:20:02.580Z,1.90
2023-01-25T05:25:06.798Z,1.90
2023-01-25T05:30:00.315Z,1.90
2023-01-25T05:34:53.991Z,1.90
2023-01-25T05:39:47.417Z,1.90
2023-01-25T05:44:43.537Z,1.90
2023-01-25T05:49:39.709Z,2.00
2023-01-25T05:54:33.694Z,2.00
2023-01-25T05:59:27.057Z,2.00
2023-01-25T06:04:21.903Z,2.00
2023-01-25T06:09:16.292Z,1.90
2023-01-25T06:14:09.646Z,1.90
2023-01-25T06:19:03.165Z,1.90
2023-01-25T06:23:58.094Z,1.90
2023-01-25T06:28:52.710Z,1.90
2023-01-25T06:33:51.560Z,1.90
2023-01-25T06:38:45.435Z,1.90
2023-01-25T06:43:40.553Z,1.90
2023-01-25T06:48:35.465Z,2.00
2023-01-25T06:53:31.460Z,1.90
2023-01-25T06:58:24.828Z,1.90
2023-01-25T07:03:19.598Z,1.90
2023-01-25T07:08:13.375Z,1.90
2023-01-25T07:13:06.859Z,1.90
2023-01-25T07:18:14.773Z,2.00
2023-01-25T07:23:10.816Z,1.90
2023-01-25T07:28:11.790Z,1.90
2023-01-25T07:33:05.403Z,1.80
2023-01-25T07:37:58.718Z,1.80
2023-01-25T07:42:59.476Z,1.80
2023-01-25T07:47:52.986Z,1.80
2023-01-25T07:52:46.404Z,1.90
2023-01-25T07:57:39.754Z,1.90
2023-01-25T08:02:34.640Z,1.90
2023-01-25T08:07:30.831Z,1.90
2023-01-25T08:12:25.823Z,1.90
2023-01-25T08:17:19.264Z,1.90
2023-01-25T08:22:14.426Z,1.90
2023-01-25T08:27:07.974Z,1.80
2023-01-25T08:32:04.479Z,1.90
2023-01-25T08:36:58.002Z,1.80
2023-01-25T08:41:52.860Z,1.90
2023-01-25T08:46:46.404Z,1.90
2023-01-25T08:51:39.773Z,1.90
2023-01-25T08:56:33.463Z,1.80
2023-01-25T09:01:28.210Z,1.90
2023-01-25T09:06:21.661Z,1.90
2023-01-25T09:11:17.777Z,1.90
2023-01-25T09:16:14.274Z,2.00
2023-01-25T09:21:11.818Z,1.90
2023-01-25T09:26:06.774Z,2.00
2023-01-25T09:31:19.871Z,1.90
2023-01-25T09:36:15.905Z,1.90
2023-01-25T09:41:25.684Z,2.00
2023-01-25T09:46:29.831Z,2.10
2023-01-25T09:51:38.464Z,2.10
2023-01-25T09:56:37.205Z,2.00
2023-01-25T10:01:43.412Z,2.00
2023-01-25T10:06:54.987Z,2.00
2023-01-25T10:11:53.446Z,1.90
2023-01-25T10:17:04.571Z,1.90
2023-01-25T10:22:06.813Z,2.00
2023-01-25T10:27:18.174Z,2.00
2023-01-25T10:32:20.443Z,2.00
2023-01-25T10:37:19.053Z,2.00
2023-01-25T10:42:16.566Z,2.10
2023-01-25T10:47:20.475Z,2.10
2023-01-25T10:52:18.797Z,2.10
2023-01-25T10:57:20.215Z,2.10
2023-01-25T11:02:45.328Z,2.00
2023-01-25T11:07:40.165Z,2.00
2023-01-25T11:12:33.726Z,1.90
2023-01-25T11:17:32.134Z,1.90
2023-01-25T11:22:26.105Z,1.90
2023-01-25T11:27:24.568Z,1.90
2023-01-25T11:32:25.175Z,1.90
2023-01-25T11:37:54.206Z,1.90
2023-01-25T11:43:08.129Z,1.90
2023-01-25T11:48:25.443Z,1.90
2023-01-25T11:53:58.284Z,2.00
2023-01-25T11:59:22.468Z,1.90
2023-01-25T12:04:48.928Z,2.10
2023-01-25T12:10:01.145Z,2.00
2023-01-25T12:15:28.196Z,2.00
2023-01-25T12:20:43.763Z,1.90
2023-01-25T12:25:50.893Z,1.90
2023-01-25T12:30:55.280Z,1.90
2023-01-25T12:35:57.309Z,1.80
2023-01-25T12:40:59.509Z,1.90
2023-01-25T12:45:56.935Z,2.00
2023-01-25T12:50:56.585Z,2.00
2023-01-25T12:55:51.346Z,1.90
2023-01-25T13:00:53.787Z,1.90
2023-01-25T13:05:58.289Z,1.90
2023-01-25T13:11:06.396Z,1.90
2023-01-25T13:16:33.329Z,1.90
2023-01-25T13:21:49.072Z,1.90
2023-01-25T13:27:06.715Z,1.90
2023-01-25T13:32:01.709Z,1.80
2023-01-25T13:36:58.348Z,1.90
2023-01-25T13:42:02.061Z,1.90
2023-01-25T13:46:55.787Z,2.00
2023-01-25T13:51:49.805Z,1.90
2023-01-25T13:56:44.964Z,2.00
2023-01-25T14:01:38.741Z,2.00
2023-01-25T14:06:37.107Z,2.10
2023-01-25T14:11:34.545Z,2.00
2023-01-25T14:16:30.983Z,2.10
2023-01-25T14:21:24.839Z,1.90
2023-01-25T14:26:23.665Z,1.90
2023-01-25T14:31:25.160Z,1.90
2023-01-25T14:36:25.181Z,1.80
2023-01-25T14:41:22.736Z,1.80
2023-01-25T14:46:29.038Z,1.80
2023-01-25T14:51:30.388Z,1.90
2023-01-25T14:56:38.324Z,1.90
2023-01-25T15:01:39.365Z,1.80
2023-01-25T15:06:34.234Z,1.80
2023-01-25T15:11:38.890Z,1.80
2023-01-25T15:16:36.526Z,1.90
2023-01-25T15:21:34.622Z,1.90
2023-01-25T15:26:30.213Z,1.90
2023-01-25T15:31:28.578Z,1.90
2023-01-25T15:36:22.019Z,1.90
2023-01-25T15:41:18.680Z,1.80
2023-01-25T15:46:20.382Z,1.70
2023-01-25T15:51:14.307Z,1.70
2023-01-25T15:56:17.048Z,1.70
2023-01-25T16:01:12.147Z,1.70
2023-01-25T16:06:29.129Z,1.80
2023-01-25T16:11:22.552Z,1.70
2023-01-25T16:16:22.160Z,1.70
2023-01-25T16:21:17.801Z,1.70
2023-01-25T16:26:21.640Z,1.60
2023-01-25T16:31:30.822Z,1.60
2023-01-25T16:36:26.902Z,1.60
2023-01-25T16:41:20.432Z,1.60
2023-01-25T16:46:19.528Z,1.60
2023-01-25T16:51:19.145Z,1.60
2023-01-25T16:56:19.618Z,1.60
2023-01-25T17:01:14.744Z,1.60
2023-01-25T17:06:09.318Z,1.60
2023-01-25T17:11:06.254Z,1.60
2023-01-25T17:16:02.358Z,1.60
2023-01-25T17:21:00.746Z,1.60
2023-01-25T17:25:54.056Z,1.70
2023-01-25T17:30:47.665Z,1.70
2023-01-25T17:35:42.535Z,1.70
2023-01-25T17:40:36.267Z,1.70
2023-01-25T17:45:29.819Z,1.70
2023-01-25T17:50:23.250Z,1.50
2023-01-25T17:55:18.205Z,1.60
2023-01-25T18:00:13.828Z,1.60
2023-01-25T18:05:08.087Z,1.70
2023-01-25T18:10:01.592Z,1.70
2023-01-25T18:14:56.286Z,1.60
2023-01-25T18:19:50.035Z,1.50
2023-01-25T18:24:44.777Z,1.60
2023-01-25T18:29:47.735Z,1.60
2023-01-25T18:34:42.635Z,1.60
2023-01-25T18:39:36.537Z,1.60
2023-01-25T18:44:30.031Z,1.60
2023-01-25T18:49:23.774Z,1.60
2023-01-25T18:54:18.795Z,1.60
2023-01-25T18:59:12.233Z,1.50
2023-01-25T19:04:05.722Z,1.60
2023-01-25T19:09:01.235Z,1.60
2023-01-25T19:13:56.375Z,1.40
2023-01-25T19:18:52.717Z,1.40
2023-01-25T19:23:47.198Z,1.50
2023-01-25T19:28:41.689Z,1.40
2023-01-25T19:33:36.998Z,1.40
2023-01-25T19:38:30.595Z,1.30
2023-01-25T19:43:24.018Z,1.40
2023-01-25T19:48:17.451Z,1.40
2023-01-25T19:53:12.136Z,1.50
2023-01-25T19:58:05.506Z,1.50
2023-01-25T20:03:10.716Z,1.30
2023-01-25T20:08:09.155Z,1.30
2023-01-25T20:13:03.889Z,1.30
2023-01-25T20:17:57.266Z,1.30
2023-01-25T20:22:52.712Z,1.30
2023-01-25T20:27:46.163Z,1.30
2023-01-25T20:32:40.905Z,1.20
2023-01-25T20:37:34.268Z,1.10
2023-01-25T20:42:27.656Z,1.20
2023-01-25T20:47:20.942Z,1.30
2023-01-25T20:52:15.775Z,1.40
2023-01-25T20:57:09.792Z,1.40
2023-01-25T21:02:03.159Z,1.40
2023-01-25T21:06:56.485Z,1.40
2023-01-25T21:11:51.424Z,1.30
2023-01-25T21:16:44.806Z,1.20
2023-01-25T21:21:38.668Z,1.00
2023-01-25T21:26:34.824Z,0.90
2023-01-25T21:31:32.891Z,0.90
2023-01-25T21:36:27.188Z,0.90
2023-01-25T21:41:24.502Z,0.90
2023-01-25T21:46:25.399Z,1.00
2023-01-25T21:51:39.689Z,1.00
2023-01-25T21:56:33.132Z,1.00
2023-01-25T22:01:26.477Z,0.90
2023-01-25T22:06:21.411Z,1.00
2023-01-25T22:16:22.427Z,0.90
2023-01-25T22:21:20.779Z,0.90
2023-01-25T22:26:17.999Z,0.80
2023-01-25T22:31:11.451Z,0.80
2023-01-25T22:36:05.553Z,0.90
2023-01-25T22:41:06.271Z,0.90
2023-01-25T22:45:59.777Z,0.90
2023-01-25T22:50:53.215Z,0.70
2023-01-25T22:55:46.953Z,0.80
2023-01-25T23:00:41.637Z,0.80
2023-01-25T23:05:35.127Z,0.90
2023-01-25T23:10:28.497Z,1.00
2023-01-25T23:15:21.980Z,1.00
2023-01-25T23:20:16.817Z,0.90
2023-01-25T23:25:12.072Z,0.90
2023-01-25T23:30:07.305Z,0.80
2023-01-25T23:35:00.723Z,0.70
2023-01-25T23:39:55.386Z,0.70
2023-01-25T23:44:48.685Z,0.70
2023-01-25T23:49:42.391Z,0.60
2023-01-25T23:54:35.743Z,0.50
2023-01-25T23:59:30.495Z,0.60
